Decoded Metar for LDRI (RIJEKA in CROATIA) (IATA:RJK) | Meteo·Mobile Aviation Weather
aviador You're here:

LDRI Decoded Metar

RIJEKA in CROATIA
Report Time2018-09-19 22:00:00
UTC Time2018-09-19 22:08:54
Flight Rules vfr VFR
WindCalm
Visibility9999 m
Phenomena:N/A
Clouds:N/A
Expected CloudBase > 2,800 ft AGL from Temp-Dew spread
CeilingNone
Temp22°C (ISA +8)
Dew Point15°C (65% RH)
QNH1019 hPa
Density Alt1,184 ft
Elevation279 ft
Report Wrong Elevation
Raw Report
METAR LDRI 192200Z 00000KT CAVOK 22/15 Q1019=

Extra information for LDRI:More info

Metar Taf Metar & Taf Last 4 Metars F.Rules Stats Wind Profile Meteogram Temp Stats Airport Information Weather charts Add Link Nearby VenuesMetar ALERT Operation Metar Decoded Social comments